Gulf Shores, AL

9:45 PM CST on February 25, 2017 (GMT -0600)
Edwards

Weather History for KJKA - October, 2012

Change the Weather History Date:

Monday, October 8, 2012

  Actual Average (KNPA) Record (KNPA)
Temperature  
Mean Temperature 65 °F -  
Max Temperature 77 °F 78 °F 91 °F (2016)
Min Temperature 53 °F 62 °F 51 °F (2000)
Growing Degree Days 15 (Base 50)    
Moisture  
Dew Point 53 °F    
Average Humidity 69    
Maximum Humidity 88    
Minimum Humidity 47    
Precipitation  
Precipitation 0.00 in - - ()
Sea Level Pressure  
Sea Level Pressure 30.07 in    
Wind  
Wind Speed 7 mph (North)    
Max Wind Speed 12 mph    
Max Gust Speed 16 mph    
Visibility 10 miles    
Events      
Averages and records for this station are not official NWS values.
T = Trace of Precipitation, MM = Missing Value Source: NWS Daily Summary

Daily Weather History Graph

Daily Weather History Graph

Search for Another Location

Airport or City:

Trip Planner

Search our weather history database for the weather conditions in past years. The results will help you decide how hot, cold, wet, or windy it might be!

Date:

Astronomy

Oct. 08, 2012 Rise Set
Actual Time 6:48 AM CDT 6:27 PM CDT
Civil Twilight 6:24 AM CDT 6:51 PM CDT
Nautical Twilight 5:56 AM CDT 7:18 PM CDT
Astronomical Twilight 5:28 AM CDT 7:46 PM CDT
Moon No Moon Rise 1:50 PM CDT (10/8)
Length of Visible Light 12h 26m
Length of Day
11h 38m
Last Quarter, 46% of the Moon is Illuminated
Oct 8
Last Quarter
Oct 15
New
Oct 21
First Quarter
Oct 29
Full
Nov 6
Last Quarter

Hourly Weather History & Observations

Time (CDT) Temp. Dew Point Humidity Pressure Visibility Wind Dir Wind Speed Gust Speed Precip Events Conditions
12:15 AM 59.0 °F 51.8 °F 77% 30.07 in 10.0 mi North 10.4 mph - N/A   Unknown
12:35 AM 59.0 °F 51.8 °F 77% 30.06 in 10.0 mi North 8.1 mph - N/A   Unknown
12:55 AM 59.0 °F 51.8 °F 77% 30.06 in 10.0 mi North 4.6 mph - N/A   Unknown
1:15 AM 57.2 °F 51.8 °F 82% 30.06 in 10.0 mi NNE 6.9 mph - N/A   Unknown
1:35 AM 57.2 °F 51.8 °F 82% 30.06 in 10.0 mi North 6.9 mph - N/A   Unknown
1:55 AM 57.2 °F 51.8 °F 82% 30.06 in 10.0 mi North 9.2 mph - N/A   Unknown
2:15 AM 55.4 °F 51.8 °F 88% 30.05 in 10.0 mi North 8.1 mph - N/A   Unknown
2:35 AM 55.4 °F 50.0 °F 82% 30.05 in 10.0 mi North 10.4 mph - N/A   Unknown
2:55 AM 57.2 °F 50.0 °F 77% 30.04 in 10.0 mi NNE 9.2 mph 16.1 mph N/A   Unknown
3:15 AM 57.2 °F 50.0 °F 77% 30.05 in 10.0 mi NNE 6.9 mph - N/A   Unknown
3:35 AM 57.2 °F 50.0 °F 77% 30.05 in 10.0 mi North 8.1 mph - N/A   Unknown
3:55 AM 57.2 °F 50.0 °F 77% 30.05 in 10.0 mi North 6.9 mph - N/A   Unknown
4:15 AM 57.2 °F 50.0 °F 77% 30.04 in 10.0 mi NNE 8.1 mph - N/A   Unknown
4:35 AM 57.2 °F 50.0 °F 77% 30.05 in 10.0 mi North 5.8 mph - N/A   Unknown
4:55 AM 57.2 °F 50.0 °F 77% 30.05 in 10.0 mi North 6.9 mph - N/A   Unknown
5:15 AM 55.4 °F 50.0 °F 82% 30.06 in 10.0 mi North 3.5 mph - N/A   Unknown
5:35 AM 55.4 °F 50.0 °F 82% 30.05 in 10.0 mi NNE 3.5 mph - N/A   Unknown
5:55 AM 55.4 °F 50.0 °F 82% 30.05 in 10.0 mi NE 5.8 mph - N/A   Unknown
6:15 AM 55.4 °F 50.0 °F 82% 30.06 in 10.0 mi NNE 3.5 mph - N/A   Unknown
6:35 AM 53.6 °F 50.0 °F 88% 30.06 in 10.0 mi NE 3.5 mph - N/A   Unknown
6:55 AM 53.6 °F 50.0 °F 88% 30.07 in 10.0 mi North 4.6 mph - N/A   Unknown
7:15 AM 53.6 °F 50.0 °F 88% 30.09 in 10.0 mi North 6.9 mph - N/A   Unknown
7:35 AM 55.4 °F 50.0 °F 82% 30.09 in 10.0 mi North 8.1 mph - N/A   Unknown
7:55 AM 55.4 °F 50.0 °F 82% 30.10 in 10.0 mi North 8.1 mph - N/A   Unknown
8:15 AM 57.2 °F 50.0 °F 77% 30.10 in 10.0 mi North 6.9 mph - N/A   Unknown
8:35 AM 59.0 °F 50.0 °F 72% 30.10 in 10.0 mi North 8.1 mph - N/A   Unknown
8:55 AM 59.0 °F 51.8 °F 77% 30.11 in 10.0 mi North 8.1 mph - N/A   Unknown
9:15 AM 60.8 °F 51.8 °F 72% 30.12 in 10.0 mi North 5.8 mph - N/A   Unknown
9:55 AM 62.6 °F 51.8 °F 68% 30.12 in 10.0 mi NNE 9.2 mph - N/A   Unknown
10:15 AM 64.4 °F 51.8 °F 64% 30.12 in 10.0 mi North 6.9 mph - N/A   Unknown
10:35 AM 68.0 °F 53.6 °F 60% 30.12 in 10.0 mi North 10.4 mph - N/A   Unknown
10:55 AM 68.0 °F 53.6 °F 60% 30.11 in 10.0 mi North 6.9 mph - N/A   Unknown
11:15 AM 68.0 °F 51.8 °F 56% 30.11 in 10.0 mi North 9.2 mph - N/A   Unknown
11:35 AM 69.8 °F 53.6 °F 56% 30.10 in 10.0 mi North 5.8 mph - N/A   Unknown
11:55 AM 69.8 °F 53.6 °F 56% 30.09 in 10.0 mi North 5.8 mph - N/A   Unknown
12:15 PM 71.6 °F 53.6 °F 53% 30.08 in 10.0 mi North 11.5 mph 16.1 mph N/A   Unknown
12:35 PM 71.6 °F 53.6 °F 53% 30.07 in 10.0 mi North 8.1 mph - N/A   Unknown
12:55 PM 73.4 °F 53.6 °F 50% 30.07 in 10.0 mi North 6.9 mph - N/A   Unknown
1:15 PM 73.4 °F 53.6 °F 50% 30.06 in 10.0 mi NNW 8.1 mph - N/A   Unknown
1:35 PM 73.4 °F 53.6 °F 50% 30.05 in 10.0 mi North 8.1 mph - N/A   Unknown
1:55 PM 73.4 °F 55.4 °F 53% 30.04 in 10.0 mi North 8.1 mph - N/A   Unknown
2:15 PM 75.2 °F 55.4 °F 50% 30.04 in 10.0 mi North 8.1 mph - N/A   Unknown
2:35 PM 75.2 °F 53.6 °F 47% 30.04 in 10.0 mi NNW 9.2 mph - N/A   Unknown
3:15 PM 75.2 °F 55.4 °F 50% 30.03 in 10.0 mi North 10.4 mph - N/A   Unknown
3:35 PM 75.2 °F 55.4 °F 50% 30.02 in 10.0 mi NNW 4.6 mph - N/A   Unknown
3:55 PM 75.2 °F 55.4 °F 50% 30.02 in 10.0 mi North 4.6 mph - N/A   Unknown
4:15 PM 77.0 °F 55.4 °F 47% 30.02 in 10.0 mi NNW 4.6 mph - N/A   Unknown
4:35 PM 77.0 °F 55.4 °F 47% 30.02 in 10.0 mi North 8.1 mph - N/A   Unknown
4:55 PM 75.2 °F 55.4 °F 50% 30.03 in 10.0 mi NNW 6.9 mph - N/A   Unknown
5:15 PM 73.4 °F 55.4 °F 53% 30.03 in 10.0 mi North 6.9 mph - N/A   Unknown
5:35 PM 73.4 °F 55.4 °F 53% 30.04 in 10.0 mi North 8.1 mph - N/A   Unknown
5:55 PM 71.6 °F 55.4 °F 57% 30.04 in 10.0 mi North 5.8 mph - N/A   Unknown
6:15 PM 71.6 °F 55.4 °F 57% 30.05 in 10.0 mi North 4.6 mph - N/A   Unknown
6:35 PM 69.8 °F 55.4 °F 60% 30.05 in 10.0 mi North 5.8 mph - N/A   Unknown
6:55 PM 68.0 °F 55.4 °F 64% 30.06 in 10.0 mi North 4.6 mph - N/A   Unknown
7:35 PM 66.2 °F 57.2 °F 73% 30.07 in 10.0 mi North 3.5 mph - N/A   Unknown
7:55 PM 64.4 °F 55.4 °F 73% 30.08 in 10.0 mi North 3.5 mph - N/A   Unknown
8:15 PM 64.4 °F 55.4 °F 73% 30.09 in 10.0 mi Calm Calm - N/A   Unknown
9:15 PM 62.6 °F 55.4 °F 77% 30.10 in 10.0 mi North 4.6 mph - N/A   Unknown
9:35 PM 62.6 °F 53.6 °F 72% 30.10 in 10.0 mi North 5.8 mph - N/A   Unknown
9:55 PM 62.6 °F 53.6 °F 72% 30.10 in 10.0 mi North 5.8 mph - N/A   Unknown
10:15 PM 60.8 °F 53.6 °F 77% 30.10 in 10.0 mi NNE 4.6 mph - N/A   Unknown
10:35 PM 60.8 °F 53.6 °F 77% 30.10 in 10.0 mi North 4.6 mph - N/A   Unknown
10:55 PM 60.8 °F 51.8 °F 72% 30.10 in 10.0 mi NNE 4.6 mph - N/A   Unknown
11:15 PM 59.0 °F 51.8 °F 77% 30.10 in 10.0 mi North 4.6 mph - N/A   Unknown
11:35 PM 59.0 °F 51.8 °F 77% 30.10 in 10.0 mi North 3.5 mph - N/A   Unknown
11:55 PM 59.0 °F 51.8 °F 77% 30.10 in 10.0 mi North 5.8 mph - N/A   Unknown